createdAt,value
2022-09-30T00:01:51.798Z,100412.84
2022-09-30T00:04:21.763Z,100417.84
2022-09-30T00:06:49.217Z,100414.53
2022-09-30T00:09:16.663Z,100414.50
2022-09-30T00:11:43.759Z,100423.75
2022-09-30T00:14:18.804Z,100422.34
2022-09-30T00:16:45.579Z,100425.69
2022-09-30T00:19:12.296Z,100426.22
2022-09-30T00:21:38.788Z,100426.75
2022-09-30T00:24:07.294Z,100421.19
2022-09-30T00:26:34.823Z,100424.50
2022-09-30T00:29:02.206Z,100423.94
2022-09-30T00:31:32.118Z,100426.19
2022-09-30T00:34:08.147Z,100417.84
2022-09-30T00:36:39.242Z,100423.97
2022-09-30T00:39:08.133Z,100422.31
2022-09-30T00:41:35.227Z,100422.28
2022-09-30T00:44:01.700Z,100428.94
2022-09-30T00:46:44.290Z,100422.84
2022-09-30T00:49:15.726Z,100420.09
2022-09-30T00:51:47.525Z,100428.13
2022-09-30T00:54:19.202Z,100433.97
2022-09-30T00:56:52.654Z,100435.03
2022-09-30T00:59:25.169Z,100426.66
2022-09-30T01:01:52.106Z,100433.09
2022-09-30T01:04:24.616Z,100439.19
2022-09-30T01:06:51.445Z,100440.56
2022-09-30T01:09:19.644Z,100438.59
2022-09-30T01:11:47.309Z,100438.88
2022-09-30T01:14:23.387Z,100443.31
2022-09-30T01:17:21.227Z,100446.63
2022-09-30T01:20:25.483Z,100448.31
2022-09-30T01:23:14.915Z,100450.25
2022-09-30T01:26:04.286Z,100448.34
2022-09-30T01:28:52.428Z,100443.63
2022-09-30T01:31:36.198Z,100452.53
2022-09-30T01:34:13.726Z,100452.78
2022-09-30T01:36:51.031Z,100449.41
2022-09-30T01:39:26.513Z,100446.03
2022-09-30T01:42:18.571Z,100440.22
2022-09-30T01:44:53.450Z,100435.19
2022-09-30T01:47:25.431Z,100440.19
2022-09-30T01:50:17.878Z,100447.13
2022-09-30T01:52:52.601Z,100451.31
2022-09-30T01:55:27.707Z,100452.16
2022-09-30T01:58:10.236Z,100448.25
2022-09-30T02:00:42.199Z,100444.94
2022-09-30T02:03:16.301Z,100441.84
2022-09-30T02:05:57.795Z,100442.13
2022-09-30T02:08:46.857Z,100442.66
2022-09-30T02:11:18.308Z,100449.03
2022-09-30T02:13:56.346Z,100448.75
2022-09-30T02:16:28.142Z,100451.81
2022-09-30T02:19:02.851Z,100458.50
2022-09-30T02:21:34.662Z,100451.56
2022-09-30T02:24:07.898Z,100452.09
2022-09-30T02:26:41.448Z,100453.09
2022-09-30T02:29:16.051Z,100455.88
2022-09-30T02:31:44.772Z,100453.72
2022-09-30T02:34:24.211Z,100445.13
2022-09-30T02:36:57.805Z,100443.34
2022-09-30T02:39:53.343Z,100451.16
2022-09-30T02:42:28.889Z,100461.94
2022-09-30T02:45:01.489Z,100462.47
2022-09-30T02:47:46.259Z,100471.38
2022-09-30T02:50:32.912Z,100474.69
2022-09-30T02:53:18.531Z,100471.66
2022-09-30T02:55:56.403Z,100469.13
2022-09-30T02:58:27.387Z,100476.38
2022-09-30T03:00:54.765Z,100474.16
2022-09-30T03:03:30.523Z,100477.75
2022-09-30T03:05:57.015Z,100485.22
2022-09-30T03:08:23.445Z,100473.00
2022-09-30T03:10:51.829Z,100477.97
2022-09-30T03:13:30.814Z,100482.94
2022-09-30T03:16:18.126Z,100486.59
2022-09-30T03:18:57.555Z,100491.28
2022-09-30T03:22:01.503Z,100489.00
2022-09-30T03:24:27.837Z,100502.31
2022-09-30T03:27:00.259Z,100495.97
2022-09-30T03:29:34.039Z,100498.34
2022-09-30T03:32:30.493Z,100493.44
2022-09-30T03:35:27.316Z,100506.53
2022-09-30T03:38:00.266Z,100502.31
2022-09-30T03:40:45.274Z,100498.28
2022-09-30T03:43:34.280Z,100498.00
2022-09-30T03:46:21.269Z,100504.16
2022-09-30T03:48:52.525Z,100501.31
2022-09-30T03:51:20.554Z,100504.56
2022-09-30T03:53:47.566Z,100497.34
2022-09-30T03:56:14.275Z,100500.59
2022-09-30T03:58:44.160Z,100515.84
2022-09-30T04:01:20.019Z,100511.97
2022-09-30T04:03:46.751Z,100516.03
2022-09-30T04:06:14.112Z,100519.47
2022-09-30T04:08:40.639Z,100513.97
2022-09-30T04:11:07.004Z,100521.34
2022-09-30T04:13:33.387Z,100520.34
2022-09-30T04:15:59.848Z,100526.78
2022-09-30T04:18:26.327Z,100527.31
2022-09-30T04:20:52.705Z,100523.19
2022-09-30T04:23:19.123Z,100531.22
2022-09-30T04:25:52.342Z,100520.16
2022-09-30T04:28:18.936Z,100534.56
2022-09-30T04:30:45.387Z,100532.66
2022-09-30T04:33:12.775Z,100541.69
2022-09-30T04:35:39.222Z,100539.09
2022-09-30T04:38:07.552Z,100550.22
2022-09-30T04:40:38.529Z,100556.94
2022-09-30T04:43:06.128Z,100561.09
2022-09-30T04:45:32.550Z,100559.41
2022-09-30T04:47:58.987Z,100562.25
2022-09-30T04:50:25.465Z,100580.28
2022-09-30T04:52:51.859Z,100571.91
2022-09-30T04:55:18.313Z,100573.84
2022-09-30T04:57:45.359Z,100581.97
2022-09-30T05:00:12.065Z,100576.50
2022-09-30T05:02:38.492Z,100583.72
2022-09-30T05:05:05.208Z,100581.72
2022-09-30T05:07:32.144Z,100588.47
2022-09-30T05:09:58.531Z,100588.66
2022-09-30T05:12:26.127Z,100584.50
2022-09-30T05:14:52.533Z,100582.84
2022-09-30T05:17:18.961Z,100591.72
2022-09-30T05:19:45.389Z,100595.78
2022-09-30T05:22:13.335Z,100590.44
2022-09-30T05:24:39.706Z,100594.97
2022-09-30T05:27:06.922Z,100607.44
2022-09-30T05:29:33.375Z,100606.59
2022-09-30T05:31:59.893Z,100606.06
2022-09-30T05:34:26.394Z,100616.34
2022-09-30T05:36:53.134Z,100617.44
2022-09-30T05:39:19.506Z,100615.00
2022-09-30T05:41:45.906Z,100610.63
2022-09-30T05:44:12.303Z,100616.72
2022-09-30T05:46:38.764Z,100617.91
2022-09-30T05:49:05.234Z,100626.31
2022-09-30T05:51:32.567Z,100626.63
2022-09-30T05:53:58.990Z,100632.81
2022-09-30T05:56:25.451Z,100633.47
2022-09-30T05:58:51.865Z,100639.28
2022-09-30T06:01:18.257Z,100641.00
2022-09-30T06:03:46.614Z,100641.28
2022-09-30T06:06:14.249Z,100636.31
2022-09-30T06:08:41.443Z,100641.41
2022-09-30T06:11:13.032Z,100641.09
2022-09-30T06:13:41.134Z,100645.03
2022-09-30T06:16:08.513Z,100638.97
2022-09-30T06:18:34.950Z,100644.38
2022-09-30T06:21:03.482Z,100647.66
2022-09-30T06:23:31.881Z,100646.06
2022-09-30T06:25:58.301Z,100641.66
2022-09-30T06:28:24.815Z,100645.28
2022-09-30T06:30:51.206Z,100650.66
2022-09-30T06:33:17.593Z,100648.31
2022-09-30T06:35:44.020Z,100650.38
2022-09-30T06:38:10.771Z,100654.91
2022-09-30T06:40:37.819Z,100665.66
2022-09-30T06:43:05.056Z,100672.34
2022-09-30T06:45:33.408Z,100669.00
2022-09-30T06:48:01.819Z,100672.34
2022-09-30T06:50:29.833Z,100672.88
2022-09-30T06:53:00.551Z,100674.47
2022-09-30T06:55:28.597Z,100674.94
2022-09-30T06:57:56.063Z,100679.59
2022-09-30T07:00:23.575Z,100678.69
2022-09-30T07:02:50.114Z,100671.31
2022-09-30T07:05:17.345Z,100678.53
2022-09-30T07:07:44.001Z,100681.75
2022-09-30T07:10:10.703Z,100682.16
2022-09-30T07:12:37.128Z,100676.94
2022-09-30T07:15:03.624Z,100686.63
2022-09-30T07:17:30.016Z,100689.00
2022-09-30T07:19:56.400Z,100689.69
2022-09-30T07:22:31.893Z,100690.94
2022-09-30T07:24:59.818Z,100694.19
2022-09-30T07:27:27.862Z,100696.41
2022-09-30T07:30:08.740Z,100693.16
2022-09-30T07:32:35.926Z,100699.06
2022-09-30T07:35:02.346Z,100704.50
2022-09-30T07:37:32.621Z,100701.41
2022-09-30T07:39:59.096Z,100704.84
2022-09-30T07:42:26.674Z,100701.13
2022-09-30T07:44:53.684Z,100700.91
2022-09-30T07:47:20.438Z,100701.75
2022-09-30T07:49:47.408Z,100695.72
2022-09-30T07:52:14.411Z,100700.75
2022-09-30T07:54:46.587Z,100708.56
2022-09-30T07:57:16.305Z,100696.97
2022-09-30T07:59:42.783Z,100710.03
2022-09-30T08:02:15.581Z,100712.31
2022-09-30T08:04:44.158Z,100712.63
2022-09-30T08:07:12.598Z,100709.06
2022-09-30T08:09:39.126Z,100706.47
2022-09-30T08:12:05.570Z,100714.09
2022-09-30T08:14:32.798Z,100715.53
2022-09-30T08:17:00.422Z,100718.56
2022-09-30T08:19:29.303Z,100719.31
2022-09-30T08:21:56.448Z,100723.41
2022-09-30T08:24:24.137Z,100723.00
2022-09-30T08:26:51.706Z,100725.19
2022-09-30T08:29:20.554Z,100722.38
2022-09-30T08:31:52.496Z,100724.88
2022-09-30T08:34:19.168Z,100735.41
2022-09-30T08:36:46.537Z,100734.97
2022-09-30T08:39:13.016Z,100734.88
2022-09-30T08:41:39.368Z,100737.41
2022-09-30T08:44:21.027Z,100740.50
2022-09-30T08:47:14.423Z,100746.78
2022-09-30T08:49:57.008Z,100743.22
2022-09-30T08:52:48.183Z,100749.41
2022-09-30T08:55:23.172Z,100754.31
2022-09-30T08:57:51.365Z,100762.84
2022-09-30T09:00:18.875Z,100757.00
2022-09-30T09:02:54.440Z,100754.06
2022-09-30T09:05:39.282Z,100761.97
2022-09-30T09:08:27.353Z,100762.59
2022-09-30T09:11:15.266Z,100755.81
2022-09-30T09:14:01.352Z,100761.16
2022-09-30T09:16:45.449Z,100749.78
2022-09-30T09:19:17.434Z,100747.81
2022-09-30T09:22:02.329Z,100751.81
2022-09-30T09:24:46.071Z,100749.56
2022-09-30T09:27:36.675Z,100743.50
2022-09-30T09:30:15.547Z,100752.59
2022-09-30T09:32:51.113Z,100752.53
2022-09-30T09:35:42.447Z,100757.19
2022-09-30T09:38:35.706Z,100749.34
2022-09-30T09:41:46.910Z,100755.41
2022-09-30T09:44:30.667Z,100749.84
2022-09-30T09:47:15.604Z,100748.25
2022-09-30T09:49:49.164Z,100743.38
2022-09-30T09:52:54.788Z,100743.50
2022-09-30T09:55:22.624Z,100742.03
2022-09-30T09:58:05.210Z,100747.06
2022-09-30T10:00:46.583Z,100733.22
2022-09-30T10:03:18.975Z,100737.91
2022-09-30T10:05:59.638Z,100738.13
2022-09-30T10:08:26.538Z,100738.78
2022-09-30T10:10:56.121Z,100731.97
2022-09-30T10:13:24.898Z,100735.63
2022-09-30T10:15:55.633Z,100737.63
2022-09-30T10:18:32.682Z,100730.97
2022-09-30T10:21:02.360Z,100730.59
2022-09-30T10:23:35.813Z,100732.63
2022-09-30T10:26:14.214Z,100730.84
2022-09-30T10:28:56.025Z,100730.66
2022-09-30T10:31:31.287Z,100729.97
2022-09-30T10:34:28.344Z,100725.47
2022-09-30T10:36:56.046Z,100723.94
2022-09-30T10:39:37.538Z,100722.25
2022-09-30T10:42:10.267Z,100722.25
2022-09-30T10:45:06.364Z,100718.28
2022-09-30T10:47:36.943Z,100712.72
2022-09-30T10:50:10.590Z,100708.84
2022-09-30T10:52:58.079Z,100709.97
2022-09-30T10:55:33.343Z,100709.16
2022-09-30T10:58:25.130Z,100706.66
2022-09-30T11:01:03.032Z,100710.16
2022-09-30T11:03:40.696Z,100707.13
2022-09-30T11:06:13.399Z,100710.25
2022-09-30T11:08:49.831Z,100703.88
2022-09-30T11:11:21.710Z,100702.91
2022-09-30T11:13:56.998Z,100702.25
2022-09-30T11:16:26.562Z,100693.09
2022-09-30T11:19:16.564Z,100690.84
2022-09-30T11:21:49.489Z,100694.22
2022-09-30T11:24:32.544Z,100686.41
2022-09-30T11:27:23.657Z,100682.00
2022-09-30T11:30:03.439Z,100693.94
2022-09-30T11:32:49.136Z,100690.22
2022-09-30T11:35:28.022Z,100692.84
2022-09-30T11:38:16.700Z,100699.84
2022-09-30T11:40:49.124Z,100697.81
2022-09-30T11:43:25.357Z,100699.94
2022-09-30T11:45:54.334Z,100695.19
2022-09-30T11:48:42.252Z,100691.91
2022-09-30T11:51:33.372Z,100697.00
2022-09-30T11:54:16.367Z,100687.84
2022-09-30T11:56:45.718Z,100691.97
2022-09-30T11:59:19.911Z,100690.22
2022-09-30T12:01:49.984Z,100689.44
2022-09-30T12:04:29.307Z,100696.44
2022-09-30T12:07:06.326Z,100695.41
2022-09-30T12:09:40.255Z,100692.19
2022-09-30T12:12:16.090Z,100698.13
2022-09-30T12:14:51.768Z,100691.03
2022-09-30T12:17:34.277Z,100692.69
2022-09-30T12:20:34.727Z,100685.59
2022-09-30T12:23:29.023Z,100689.84
2022-09-30T12:25:57.569Z,100690.09
2022-09-30T12:28:52.515Z,100684.63
2022-09-30T12:31:51.819Z,100692.56
2022-09-30T12:34:36.964Z,100690.66
2022-09-30T12:37:09.284Z,100692.09
2022-09-30T12:39:58.947Z,100695.41
2022-09-30T12:42:42.163Z,100699.78
2022-09-30T12:45:33.756Z,100695.66
2022-09-30T12:48:06.618Z,100694.78
2022-09-30T12:50:44.415Z,100697.88
2022-09-30T12:53:26.005Z,100698.59
2022-09-30T12:55:53.373Z,100701.22
2022-09-30T12:58:30.627Z,100698.13
2022-09-30T13:01:06.246Z,100701.91
2022-09-30T13:04:09.380Z,100700.91
2022-09-30T13:06:44.870Z,100687.41
2022-09-30T13:09:11.188Z,100700.50
2022-09-30T13:11:40.564Z,100698.19
2022-09-30T13:14:30.950Z,100693.84
2022-09-30T13:17:07.483Z,100696.44
2022-09-30T13:19:37.336Z,100689.19
2022-09-30T13:22:39.636Z,100693.84
2022-09-30T13:25:15.182Z,100697.16
2022-09-30T13:28:08.077Z,100706.28
2022-09-30T13:30:36.306Z,100704.25
2022-09-30T13:33:02.613Z,100693.13
2022-09-30T13:35:35.195Z,100693.03
2022-09-30T13:38:13.652Z,100691.75
2022-09-30T13:41:01.772Z,100695.28
2022-09-30T13:44:05.965Z,100690.69
2022-09-30T13:46:39.835Z,100684.09
2022-09-30T13:49:17.758Z,100686.59
2022-09-30T13:51:44.859Z,100688.00
2022-09-30T13:54:18.179Z,100686.16
2022-09-30T13:56:45.089Z,100686.16
2022-09-30T13:59:31.795Z,100680.25
2022-09-30T14:02:28.117Z,100678.00
2022-09-30T14:05:15.502Z,100679.59
2022-09-30T14:08:04.791Z,100679.72
2022-09-30T14:11:00.410Z,100687.75
2022-09-30T14:13:27.698Z,100684.09
2022-09-30T14:16:31.927Z,100678.41
2022-09-30T14:19:23.747Z,100682.28
2022-09-30T14:21:56.684Z,100680.75
2022-09-30T14:24:26.243Z,100680.81
2022-09-30T14:27:07.567Z,100682.25
2022-09-30T14:29:48.078Z,100687.47
2022-09-30T14:32:19.942Z,100690.56
2022-09-30T14:34:49.563Z,100688.50
2022-09-30T14:37:25.027Z,100687.97
2022-09-30T14:39:51.430Z,100691.72
2022-09-30T14:42:30.163Z,100688.16
2022-09-30T14:45:04.528Z,100687.16
2022-09-30T14:47:39.245Z,100686.78
2022-09-30T14:50:19.595Z,100686.81
2022-09-30T14:52:48.584Z,100688.66
2022-09-30T14:55:34.190Z,100688.66
2022-09-30T14:58:28.602Z,100688.06
2022-09-30T15:01:17.517Z,100693.66
2022-09-30T15:03:53.368Z,100698.56
2022-09-30T15:06:22.759Z,100697.09
2022-09-30T15:08:50.696Z,100695.56
2022-09-30T15:11:19.468Z,100691.75
2022-09-30T15:13:46.003Z,100691.13
2022-09-30T15:16:30.724Z,100698.75
2022-09-30T15:18:58.470Z,100697.22
2022-09-30T15:21:28.091Z,100699.13
2022-09-30T15:24:00.658Z,100694.16
2022-09-30T15:26:27.712Z,100694.56
2022-09-30T15:28:54.753Z,100697.84
2022-09-30T15:31:25.926Z,100698.88
2022-09-30T15:34:19.190Z,100694.09
2022-09-30T15:36:56.651Z,100689.97
2022-09-30T15:39:54.323Z,100695.47
2022-09-30T15:42:44.329Z,100688.94
2022-09-30T15:45:16.525Z,100695.09
2022-09-30T15:47:55.614Z,100689.31
2022-09-30T15:50:40.391Z,100690.31
2022-09-30T15:53:15.223Z,100697.06
2022-09-30T15:55:44.485Z,100694.28
2022-09-30T15:58:26.046Z,100692.28
2022-09-30T16:00:54.917Z,100700.97
2022-09-30T16:03:30.140Z,100691.28
2022-09-30T16:06:12.118Z,100698.69
2022-09-30T16:08:43.304Z,100700.53
2022-09-30T16:11:17.722Z,100693.91
2022-09-30T16:13:45.830Z,100705.72
2022-09-30T16:16:24.886Z,100705.75
2022-09-30T16:18:53.491Z,100701.41
2022-09-30T16:21:43.880Z,100695.97
2022-09-30T16:24:22.578Z,100701.16
2022-09-30T16:26:56.624Z,100697.81
2022-09-30T16:29:25.694Z,100702.53
2022-09-30T16:31:55.461Z,100708.66
2022-09-30T16:34:24.418Z,100709.69
2022-09-30T16:36:52.746Z,100717.69
2022-09-30T16:39:19.699Z,100719.00
2022-09-30T16:41:46.723Z,100699.72
2022-09-30T16:44:13.799Z,100708.31
2022-09-30T16:46:40.201Z,100710.31
2022-09-30T16:49:14.434Z,100705.78
2022-09-30T16:51:40.872Z,100711.53
2022-09-30T16:54:07.256Z,100710.63
2022-09-30T16:56:35.117Z,100708.56
2022-09-30T16:59:02.366Z,100700.72
2022-09-30T17:01:29.569Z,100698.63
2022-09-30T17:03:57.383Z,100707.94
2022-09-30T17:06:32.029Z,100701.06
2022-09-30T17:09:02.437Z,100695.84
2022-09-30T17:11:31.278Z,100704.25
2022-09-30T17:13:57.904Z,100702.97
2022-09-30T17:16:24.940Z,100698.44
2022-09-30T17:18:52.216Z,100699.31
2022-09-30T17:21:20.477Z,100702.91
2022-09-30T17:23:47.078Z,100717.34
2022-09-30T17:26:13.500Z,100727.34
2022-09-30T17:28:40.025Z,100717.78
2022-09-30T17:31:08.515Z,100712.25
2022-09-30T17:33:37.842Z,100714.53
2022-09-30T17:36:06.746Z,100715.38
2022-09-30T17:38:34.365Z,100713.72
2022-09-30T17:41:20.546Z,100707.06
2022-09-30T17:43:47.095Z,100708.97
2022-09-30T17:46:23.388Z,100711.16
2022-09-30T17:48:54.291Z,100716.88
2022-09-30T17:51:20.762Z,100717.41
2022-09-30T17:53:48.162Z,100719.94
2022-09-30T17:56:20.166Z,100723.00
2022-09-30T17:58:49.117Z,100714.56
2022-09-30T18:01:17.495Z,100721.13
2022-09-30T18:03:45.057Z,100716.53
2022-09-30T18:06:11.529Z,100719.97
2022-09-30T18:08:38.237Z,100718.19
2022-09-30T18:11:04.654Z,100721.75
2022-09-30T18:13:31.104Z,100719.31
2022-09-30T18:16:02.185Z,100723.47
2022-09-30T18:18:29.438Z,100725.16
2022-09-30T18:20:56.049Z,100721.84
2022-09-30T18:23:22.534Z,100718.28
2022-09-30T18:25:49.847Z,100733.53
2022-09-30T18:28:16.800Z,100730.53
2022-09-30T18:30:43.773Z,100728.00
2022-09-30T18:33:10.949Z,100725.19
2022-09-30T18:35:39.425Z,100722.41
2022-09-30T18:38:06.841Z,100720.53
2022-09-30T18:40:33.784Z,100725.31
2022-09-30T18:43:02.791Z,100718.13
2022-09-30T18:45:31.254Z,100722.19
2022-09-30T18:47:59.815Z,100718.72
2022-09-30T18:50:28.355Z,100717.06
2022-09-30T18:52:55.906Z,100721.59
2022-09-30T18:55:22.610Z,100721.47
2022-09-30T18:57:50.292Z,100719.56
2022-09-30T19:00:17.699Z,100722.91
2022-09-30T19:02:46.988Z,100722.97
2022-09-30T19:05:14.864Z,100723.00
2022-09-30T19:07:41.246Z,100716.66
2022-09-30T19:10:08.811Z,100723.13
2022-09-30T19:12:36.513Z,100724.22
2022-09-30T19:15:08.431Z,100723.41
2022-09-30T19:17:37.006Z,100724.91
2022-09-30T19:20:05.231Z,100722.38
2022-09-30T19:22:36.985Z,100723.78
2022-09-30T19:25:10.519Z,100716.03
2022-09-30T19:27:38.352Z,100728.97
2022-09-30T19:30:06.406Z,100722.53
2022-09-30T19:32:35.896Z,100723.66
2022-09-30T19:35:06.679Z,100726.66
2022-09-30T19:37:33.495Z,100722.81
2022-09-30T19:40:07.463Z,100714.44
2022-09-30T19:42:39.304Z,100722.38
2022-09-30T19:45:07.130Z,100725.84
2022-09-30T19:47:34.609Z,100716.38
2022-09-30T19:50:01.084Z,100719.19
2022-09-30T19:52:27.636Z,100718.63
2022-09-30T19:54:58.201Z,100728.38
2022-09-30T19:57:25.836Z,100726.91
2022-09-30T19:59:53.263Z,100724.81
2022-09-30T20:02:21.527Z,100725.72
2022-09-30T20:04:48.213Z,100723.81
2022-09-30T20:07:14.948Z,100719.66
2022-09-30T20:09:42.674Z,100730.88
2022-09-30T20:12:10.715Z,100720.25
2022-09-30T20:14:55.911Z,100726.91
2022-09-30T20:17:23.309Z,100719.75
2022-09-30T20:20:09.758Z,100729.53
2022-09-30T20:22:36.509Z,100730.41
2022-09-30T20:25:03.716Z,100727.03
2022-09-30T20:27:30.992Z,100722.81
2022-09-30T20:29:57.381Z,100721.16
2022-09-30T20:32:23.983Z,100718.97
2022-09-30T20:34:51.498Z,100727.69
2022-09-30T20:37:17.898Z,100722.94
2022-09-30T20:39:44.591Z,100713.75
2022-09-30T20:42:10.987Z,100717.41
2022-09-30T20:44:37.883Z,100719.09
2022-09-30T20:47:04.386Z,100709.03
2022-09-30T20:49:30.815Z,100714.09
2022-09-30T20:51:57.194Z,100713.56
2022-09-30T20:54:23.650Z,100710.72
2022-09-30T20:57:06.669Z,100711.84
2022-09-30T20:59:34.134Z,100702.38
2022-09-30T21:02:00.716Z,100701.25
2022-09-30T21:04:27.201Z,100700.44
2022-09-30T21:06:53.627Z,100700.69
2022-09-30T21:09:20.124Z,100701.25
2022-09-30T21:11:46.525Z,100710.22
2022-09-30T21:14:17.428Z,100706.88
2022-09-30T21:16:43.933Z,100697.69
2022-09-30T21:19:10.441Z,100699.38
2022-09-30T21:21:36.849Z,100691.56
2022-09-30T21:24:03.271Z,100689.59
2022-09-30T21:26:29.967Z,100691.28
2022-09-30T21:28:56.356Z,100692.38
2022-09-30T21:31:26.725Z,100699.09
2022-09-30T21:33:56.285Z,100689.91
2022-09-30T21:36:22.847Z,100689.06
2022-09-30T21:38:49.869Z,100698.28
2022-09-30T21:41:17.451Z,100696.63
2022-09-30T21:43:44.301Z,100699.69
2022-09-30T21:46:12.450Z,100698.28
2022-09-30T21:48:39.452Z,100694.94
2022-09-30T21:51:07.127Z,100703.03
2022-09-30T21:53:33.936Z,100709.78
2022-09-30T21:56:03.162Z,100701.66
2022-09-30T21:58:31.681Z,100708.34
2022-09-30T22:01:00.593Z,100701.38
2022-09-30T22:03:30.714Z,100703.63
2022-09-30T22:05:58.259Z,100701.94
2022-09-30T22:08:25.038Z,100707.81
2022-09-30T22:10:51.442Z,100702.78
2022-09-30T22:13:18.702Z,100709.47
2022-09-30T22:15:47.011Z,100702.50
2022-09-30T22:18:18.405Z,100709.19
2022-09-30T22:20:46.603Z,100705.59
2022-09-30T22:23:14.861Z,100713.69
2022-09-30T22:25:41.416Z,100716.47
2022-09-30T22:28:07.851Z,100714.25
2022-09-30T22:30:35.192Z,100715.91
2022-09-30T22:33:19.866Z,100714.53
2022-09-30T22:36:05.100Z,100714.81
2022-09-30T22:38:31.483Z,100716.22
2022-09-30T22:40:59.394Z,100708.41
2022-09-30T22:43:26.895Z,100709.75
2022-09-30T22:46:08.068Z,100712.56
2022-09-30T22:48:35.158Z,100706.97
2022-09-30T22:51:01.851Z,100703.66
2022-09-30T22:53:28.789Z,100703.06
2022-09-30T22:55:55.256Z,100705.59
2022-09-30T22:58:25.889Z,100696.38
2022-09-30T23:00:57.482Z,100692.47
2022-09-30T23:03:25.473Z,100694.13
2022-09-30T23:05:53.142Z,100689.94
2022-09-30T23:08:19.539Z,100688.00
2022-09-30T23:10:49.888Z,100688.00
2022-09-30T23:13:19.916Z,100684.91
2022-09-30T23:15:47.765Z,100680.72
2022-09-30T23:18:16.927Z,100681.84
2022-09-30T23:20:52.687Z,100674.31
2022-09-30T23:23:19.062Z,100681.56
2022-09-30T23:25:45.432Z,100677.09
2022-09-30T23:28:11.887Z,100668.44
2022-09-30T23:30:38.349Z,100667.63
2022-09-30T23:33:05.163Z,100665.09
2022-09-30T23:35:31.543Z,100659.25
2022-09-30T23:37:57.913Z,100655.06
2022-09-30T23:40:24.296Z,100657.84
2022-09-30T23:42:51.250Z,100655.88
2022-09-30T23:45:17.623Z,100654.22
2022-09-30T23:47:47.396Z,100650.03
2022-09-30T23:50:13.828Z,100653.38
2022-09-30T23:52:40.213Z,100650.03
2022-09-30T23:55:07.181Z,100648.91
2022-09-30T23:57:33.595Z,100651.69
2022-09-30T23:59:59.977Z,100645.84
